createdAt,value
2022-12-07T00:00:00.232Z,947.32
2022-12-07T00:00:09.829Z,947.32
2022-12-07T00:00:19.829Z,947.32
2022-12-07T00:00:29.833Z,947.32
2022-12-07T00:00:39.838Z,947.32
2022-12-07T00:00:49.832Z,947.33
2022-12-07T00:00:59.834Z,947.33
2022-12-07T00:01:09.848Z,947.33
2022-12-07T00:01:19.836Z,947.33
2022-12-07T00:01:29.839Z,947.34
2022-12-07T00:01:40.029Z,947.33
2022-12-07T00:01:49.860Z,947.33
2022-12-07T00:01:59.871Z,947.34
2022-12-07T00:02:09.892Z,947.34
2022-12-07T00:02:19.890Z,947.34
2022-12-07T00:02:29.909Z,947.34
2022-12-07T00:02:39.916Z,947.34
2022-12-07T00:02:49.848Z,947.34
2022-12-07T00:02:59.909Z,947.34
2022-12-07T00:03:09.925Z,947.34
2022-12-07T00:03:19.883Z,947.34
2022-12-07T00:03:29.892Z,947.34
2022-12-07T00:03:39.894Z,947.35
2022-12-07T00:03:49.871Z,947.35
2022-12-07T00:03:59.847Z,947.35
2022-12-07T00:04:09.850Z,947.35
2022-12-07T00:04:19.852Z,947.35
2022-12-07T00:04:29.849Z,947.35
2022-12-07T00:04:39.883Z,947.34
2022-12-07T00:04:49.854Z,947.34
2022-12-07T00:04:59.855Z,947.35
2022-12-07T00:05:09.862Z,947.35
2022-12-07T00:05:19.857Z,947.35
2022-12-07T00:05:29.862Z,947.36
2022-12-07T00:05:39.860Z,947.36
2022-12-07T00:05:49.859Z,947.36
2022-12-07T00:05:59.859Z,947.36
2022-12-07T00:06:09.867Z,947.36
2022-12-07T00:06:19.865Z,947.35
2022-12-07T00:06:29.874Z,947.36
2022-12-07T00:06:39.864Z,947.35
2022-12-07T00:06:49.863Z,947.35
2022-12-07T00:06:59.875Z,947.35
2022-12-07T00:07:09.866Z,947.35
2022-12-07T00:07:23.625Z,947.35
2022-12-07T00:07:30.872Z,947.34
2022-12-07T00:07:39.901Z,947.34
2022-12-07T00:07:49.921Z,947.34
2022-12-07T00:07:59.907Z,947.34
2022-12-07T00:08:09.905Z,947.34
2022-12-07T00:08:19.895Z,947.34
2022-12-07T00:08:29.870Z,947.34
2022-12-07T00:08:39.868Z,947.33
2022-12-07T00:08:49.877Z,947.33
2022-12-07T00:08:59.853Z,947.33
2022-12-07T00:09:09.878Z,947.32
2022-12-07T00:09:19.874Z,947.32
2022-12-07T00:09:29.857Z,947.32
2022-12-07T00:09:39.876Z,947.32
2022-12-07T00:09:49.877Z,947.32
2022-12-07T00:10:00.249Z,947.32
2022-12-07T00:10:09.882Z,947.32
2022-12-07T00:10:19.881Z,947.31
2022-12-07T00:10:29.883Z,947.31
2022-12-07T00:10:39.885Z,947.30
2022-12-07T00:10:49.883Z,947.31
2022-12-07T00:10:59.884Z,947.31
2022-12-07T00:11:09.885Z,947.30
2022-12-07T00:11:19.889Z,947.30
2022-12-07T00:11:29.890Z,947.30
2022-12-07T00:11:39.895Z,947.29
2022-12-07T00:11:49.903Z,947.29
2022-12-07T00:11:59.901Z,947.29
2022-12-07T00:12:09.890Z,947.29
2022-12-07T00:12:19.890Z,947.28
2022-12-07T00:12:29.894Z,947.28
2022-12-07T00:12:39.894Z,947.28
2022-12-07T00:12:49.895Z,947.28
2022-12-07T00:12:59.878Z,947.28
2022-12-07T00:13:09.906Z,947.28
2022-12-07T00:13:19.897Z,947.28
2022-12-07T00:13:29.900Z,947.27
2022-12-07T00:13:39.904Z,947.27
2022-12-07T00:13:49.907Z,947.25
2022-12-07T00:13:59.904Z,947.25
2022-12-07T00:14:09.900Z,947.25
2022-12-07T00:14:19.905Z,947.25
2022-12-07T00:14:29.905Z,947.25
2022-12-07T00:14:39.905Z,947.25
2022-12-07T00:14:49.904Z,947.25
2022-12-07T00:14:59.910Z,947.25
2022-12-07T00:15:09.907Z,947.24
2022-12-07T00:15:19.908Z,947.24
2022-12-07T00:15:29.912Z,947.23
2022-12-07T00:15:39.921Z,947.22
2022-12-07T00:15:49.916Z,947.23
2022-12-07T00:16:00.080Z,947.22
2022-12-07T00:16:09.923Z,947.21
2022-12-07T00:16:19.944Z,947.21
2022-12-07T00:16:29.987Z,947.20
2022-12-07T00:16:39.961Z,947.20
2022-12-07T00:16:49.942Z,947.19
2022-12-07T00:17:00.084Z,947.19
2022-12-07T00:17:09.917Z,947.18
2022-12-07T00:17:19.921Z,947.19
2022-12-07T00:17:29.921Z,947.19
2022-12-07T00:17:39.922Z,947.18
2022-12-07T00:17:49.927Z,947.18
2022-12-07T00:17:59.927Z,947.17
2022-12-07T00:18:09.923Z,947.17
2022-12-07T00:18:19.926Z,947.17
2022-12-07T00:18:29.926Z,947.17
2022-12-07T00:18:39.933Z,947.17
2022-12-07T00:18:49.929Z,947.16
2022-12-07T00:18:59.929Z,947.16
2022-12-07T00:19:09.911Z,947.16
2022-12-07T00:19:19.931Z,947.15
2022-12-07T00:19:29.932Z,947.15
2022-12-07T00:19:39.930Z,947.14
2022-12-07T00:19:49.935Z,947.14
2022-12-07T00:20:00.311Z,947.13
2022-12-07T00:20:09.934Z,947.13
2022-12-07T00:20:19.984Z,947.13
2022-12-07T00:20:29.927Z,947.13
2022-12-07T00:20:39.934Z,947.13
2022-12-07T00:20:49.937Z,947.13
2022-12-07T00:20:59.936Z,947.13
2022-12-07T00:21:09.946Z,947.13
2022-12-07T00:21:19.940Z,947.12
2022-12-07T00:21:29.942Z,947.11
2022-12-07T00:21:39.944Z,947.11
2022-12-07T00:21:49.942Z,947.10
2022-12-07T00:21:59.950Z,947.10
2022-12-07T00:22:09.942Z,947.09
2022-12-07T00:22:19.943Z,947.09
2022-12-07T00:22:29.945Z,947.08
2022-12-07T00:22:39.943Z,947.07
2022-12-07T00:22:49.955Z,947.07
2022-12-07T00:22:59.949Z,947.07
2022-12-07T00:23:09.946Z,947.06
2022-12-07T00:23:19.946Z,947.06
2022-12-07T00:23:29.948Z,947.06
2022-12-07T00:23:39.947Z,947.06
2022-12-07T00:23:49.953Z,947.06
2022-12-07T00:23:59.947Z,947.05
2022-12-07T00:24:09.951Z,947.06
2022-12-07T00:24:19.946Z,947.06
2022-12-07T00:24:29.948Z,947.06
2022-12-07T00:24:39.948Z,947.06
2022-12-07T00:24:49.949Z,947.06
2022-12-07T00:24:59.951Z,947.06
2022-12-07T00:25:10.025Z,947.06
2022-12-07T00:25:19.954Z,947.05
2022-12-07T00:25:29.948Z,947.05
2022-12-07T00:25:39.937Z,947.06
2022-12-07T00:25:49.955Z,947.06
2022-12-07T00:25:59.959Z,947.06
2022-12-07T00:26:09.962Z,947.06
2022-12-07T00:26:19.960Z,947.06
2022-12-07T00:26:29.957Z,947.05
2022-12-07T00:26:39.962Z,947.06
2022-12-07T00:26:49.944Z,947.06
2022-12-07T00:26:59.988Z,947.06
2022-12-07T00:27:09.965Z,947.05
2022-12-07T00:27:19.963Z,947.05
2022-12-07T00:27:29.967Z,947.04
2022-12-07T00:27:39.977Z,947.04
2022-12-07T00:27:49.967Z,947.04
2022-12-07T00:27:59.973Z,947.04
2022-12-07T00:28:09.973Z,947.04
2022-12-07T00:28:19.969Z,947.04
2022-12-07T00:28:29.970Z,947.04
2022-12-07T00:28:39.976Z,947.03
2022-12-07T00:28:49.974Z,947.03
2022-12-07T00:28:59.975Z,947.02
2022-12-07T00:29:09.973Z,947.02
2022-12-07T00:29:19.974Z,947.02
2022-12-07T00:29:29.965Z,947.02
2022-12-07T00:29:39.977Z,947.02
2022-12-07T00:29:49.975Z,947.02
2022-12-07T00:30:00.327Z,947.02
2022-12-07T00:30:09.981Z,947.03
2022-12-07T00:30:19.981Z,947.03
2022-12-07T00:30:29.987Z,947.03
2022-12-07T00:30:39.985Z,947.03
2022-12-07T00:30:49.988Z,947.03
2022-12-07T00:30:59.995Z,947.03
2022-12-07T00:31:09.988Z,947.03
2022-12-07T00:31:20.107Z,947.03
2022-12-07T00:31:30.018Z,947.03
2022-12-07T00:31:40.412Z,947.03
2022-12-07T00:31:50.092Z,947.03
2022-12-07T00:32:00.069Z,947.04
2022-12-07T00:32:10.035Z,947.04
2022-12-07T00:32:20.063Z,947.04
2022-12-07T00:32:29.990Z,947.03
2022-12-07T00:32:39.994Z,947.03
2022-12-07T00:32:49.977Z,947.02
2022-12-07T00:32:59.994Z,947.02
2022-12-07T00:33:09.998Z,947.03
2022-12-07T00:33:19.997Z,947.03
2022-12-07T00:33:30.000Z,947.03
2022-12-07T00:33:40.002Z,947.02
2022-12-07T00:33:50.004Z,947.01
2022-12-07T00:33:59.987Z,947.01
2022-12-07T00:34:10.004Z,947.00
2022-12-07T00:34:20.008Z,947.00
2022-12-07T00:34:30.005Z,947.00
2022-12-07T00:34:40.006Z,946.99
2022-12-07T00:34:50.005Z,946.99
2022-12-07T00:35:00.005Z,946.99
2022-12-07T00:35:10.010Z,946.99
2022-12-07T00:35:20.015Z,946.98
2022-12-07T00:35:30.019Z,946.98
2022-12-07T00:35:40.011Z,946.98
2022-12-07T00:35:50.012Z,946.98
2022-12-07T00:36:00.016Z,946.98
2022-12-07T00:36:10.020Z,946.98
2022-12-07T00:36:26.044Z,946.98
2022-12-07T00:36:31.018Z,946.97
2022-12-07T00:36:40.017Z,946.96
2022-12-07T00:36:50.030Z,946.96
2022-12-07T00:37:00.023Z,946.96
2022-12-07T00:37:10.021Z,946.96
2022-12-07T00:37:20.023Z,946.95
2022-12-07T00:37:30.026Z,946.94
2022-12-07T00:37:40.024Z,946.94
2022-12-07T00:37:50.030Z,946.94
2022-12-07T00:38:00.026Z,946.93
2022-12-07T00:38:10.028Z,946.93
2022-12-07T00:38:20.027Z,946.93
2022-12-07T00:38:30.028Z,946.92
2022-12-07T00:38:40.027Z,946.92
2022-12-07T00:38:50.030Z,946.92
2022-12-07T00:39:00.031Z,946.92
2022-12-07T00:39:10.034Z,946.91
2022-12-07T00:39:20.041Z,946.91
2022-12-07T00:39:30.036Z,946.91
2022-12-07T00:39:40.039Z,946.91
2022-12-07T00:39:50.044Z,946.91
2022-12-07T00:40:00.301Z,946.91
2022-12-07T00:40:10.044Z,946.91
2022-12-07T00:40:20.043Z,946.90
2022-12-07T00:40:30.044Z,946.89
2022-12-07T00:40:40.046Z,946.88
2022-12-07T00:40:50.047Z,946.89
2022-12-07T00:41:00.046Z,946.90
2022-12-07T00:41:10.056Z,946.90
2022-12-07T00:41:20.050Z,946.90
2022-12-07T00:41:30.058Z,946.91
2022-12-07T00:41:40.056Z,946.92
2022-12-07T00:41:50.050Z,946.93
2022-12-07T00:42:00.065Z,946.93
2022-12-07T00:42:10.072Z,946.93
2022-12-07T00:42:20.055Z,946.93
2022-12-07T00:42:30.054Z,946.93
2022-12-07T00:42:40.040Z,946.93
2022-12-07T00:42:50.058Z,946.93
2022-12-07T00:43:00.074Z,946.93
2022-12-07T00:43:10.061Z,946.94
2022-12-07T00:43:20.058Z,946.93
2022-12-07T00:43:30.065Z,946.93
2022-12-07T00:43:40.059Z,946.92
2022-12-07T00:43:50.059Z,946.91
2022-12-07T00:44:00.080Z,946.91
2022-12-07T00:44:10.060Z,946.90
2022-12-07T00:44:20.063Z,946.90
2022-12-07T00:44:30.064Z,946.89
2022-12-07T00:44:40.070Z,946.89
2022-12-07T00:44:50.067Z,946.89
2022-12-07T00:45:00.078Z,946.90
2022-12-07T00:45:10.068Z,946.90
2022-12-07T00:45:20.070Z,946.89
2022-12-07T00:45:30.159Z,946.88
2022-12-07T00:45:40.112Z,946.88
2022-12-07T00:45:50.132Z,946.88
2022-12-07T00:46:00.182Z,946.88
2022-12-07T00:46:10.132Z,946.88
2022-12-07T00:46:20.178Z,946.88
2022-12-07T00:46:30.118Z,946.88
2022-12-07T00:46:40.084Z,946.88
2022-12-07T00:46:50.081Z,946.88
2022-12-07T00:47:00.088Z,946.87
2022-12-07T00:47:10.085Z,946.87
2022-12-07T00:47:20.077Z,946.87
2022-12-07T00:47:30.079Z,946.87
2022-12-07T00:47:40.081Z,946.87
2022-12-07T00:47:50.083Z,946.86
2022-12-07T00:48:00.089Z,946.86
2022-12-07T00:48:10.089Z,946.85
2022-12-07T00:48:20.086Z,946.85
2022-12-07T00:48:30.085Z,946.85
2022-12-07T00:48:40.087Z,946.85
2022-12-07T00:48:50.094Z,946.85
2022-12-07T00:49:00.095Z,946.86
2022-12-07T00:49:10.091Z,946.87
2022-12-07T00:49:20.089Z,946.87
2022-12-07T00:49:30.088Z,946.87
2022-12-07T00:49:40.093Z,946.87
2022-12-07T00:49:50.103Z,946.87
2022-12-07T00:50:00.365Z,946.87
2022-12-07T00:50:10.094Z,946.87
2022-12-07T00:50:20.096Z,946.87
2022-12-07T00:50:30.099Z,946.87
2022-12-07T00:50:40.102Z,946.86
2022-12-07T00:50:50.111Z,946.86
2022-12-07T00:51:00.109Z,946.85
2022-12-07T00:51:10.102Z,946.85
2022-12-07T00:51:20.101Z,946.85
2022-12-07T00:51:30.107Z,946.85
2022-12-07T00:51:40.109Z,946.85
2022-12-07T00:51:50.107Z,946.84
2022-12-07T00:52:00.106Z,946.84
2022-12-07T00:52:10.116Z,946.84
2022-12-07T00:52:20.107Z,946.83
2022-12-07T00:52:30.111Z,946.83
2022-12-07T00:52:40.110Z,946.83
2022-12-07T00:52:50.107Z,946.83
2022-12-07T00:53:00.109Z,946.82
2022-12-07T00:53:10.116Z,946.82
2022-12-07T00:53:20.116Z,946.82
2022-12-07T00:53:30.118Z,946.82
2022-12-07T00:53:41.795Z,946.82
2022-12-07T00:53:50.117Z,946.81
2022-12-07T00:54:00.120Z,946.81
2022-12-07T00:54:10.121Z,946.80
2022-12-07T00:54:20.124Z,946.80
2022-12-07T00:54:30.123Z,946.80
2022-12-07T00:54:40.121Z,946.80
2022-12-07T00:54:50.121Z,946.80
2022-12-07T00:55:00.122Z,946.81
2022-12-07T00:55:10.122Z,946.80
2022-12-07T00:55:20.127Z,946.79
2022-12-07T00:55:30.124Z,946.78
2022-12-07T00:55:40.126Z,946.78
2022-12-07T00:55:50.128Z,946.77
2022-12-07T00:56:00.129Z,946.77
2022-12-07T00:56:10.135Z,946.77
2022-12-07T00:56:20.147Z,946.77
2022-12-07T00:56:30.139Z,946.77
2022-12-07T00:56:40.133Z,946.77
2022-12-07T00:56:50.131Z,946.77
2022-12-07T00:57:00.138Z,946.77
2022-12-07T00:57:10.194Z,946.77
2022-12-07T00:57:20.133Z,946.77
2022-12-07T00:57:30.133Z,946.77
2022-12-07T00:57:40.141Z,946.76
2022-12-07T00:57:50.136Z,946.76
2022-12-07T00:58:00.139Z,946.76
2022-12-07T00:58:10.147Z,946.76
2022-12-07T00:58:20.140Z,946.76
2022-12-07T00:58:30.142Z,946.76
2022-12-07T00:58:40.140Z,946.76
2022-12-07T00:58:50.145Z,946.76
2022-12-07T00:59:00.151Z,946.76
2022-12-07T00:59:10.150Z,946.76
2022-12-07T00:59:20.148Z,946.75
2022-12-07T00:59:30.145Z,946.75
2022-12-07T00:59:40.160Z,946.75
2022-12-07T00:59:50.147Z,946.75
2022-12-07T01:00:00.542Z,946.74
2022-12-07T01:00:10.150Z,946.74
2022-12-07T01:00:20.150Z,946.75
2022-12-07T01:00:30.134Z,946.75
2022-12-07T01:00:40.148Z,946.76
2022-12-07T01:00:50.135Z,946.76
2022-12-07T01:01:00.225Z,946.76
2022-12-07T01:01:10.226Z,946.77
2022-12-07T01:01:20.189Z,946.77
2022-12-07T01:01:30.183Z,946.77
2022-12-07T01:01:40.208Z,946.77
2022-12-07T01:01:50.220Z,946.77
2022-12-07T01:02:00.215Z,946.78
2022-12-07T01:02:10.163Z,946.78
2022-12-07T01:02:20.163Z,946.78
2022-12-07T01:02:30.159Z,946.78
2022-12-07T01:02:40.162Z,946.77
2022-12-07T01:02:50.181Z,946.77
2022-12-07T01:03:00.242Z,946.77
2022-12-07T01:03:10.212Z,946.78
2022-12-07T01:03:20.188Z,946.79
2022-12-07T01:03:31.066Z,946.80
2022-12-07T01:03:40.237Z,946.79
2022-12-07T01:03:50.168Z,946.80
2022-12-07T01:04:00.170Z,946.79
2022-12-07T01:04:10.174Z,946.79
2022-12-07T01:04:20.172Z,946.80
2022-12-07T01:04:30.155Z,946.80
2022-12-07T01:04:40.176Z,946.80
2022-12-07T01:04:50.176Z,946.79
2022-12-07T01:05:00.185Z,946.79
2022-12-07T01:05:10.159Z,946.79
2022-12-07T01:05:20.175Z,946.79
2022-12-07T01:05:30.178Z,946.78
2022-12-07T01:05:40.182Z,946.78
2022-12-07T01:05:50.183Z,946.77
2022-12-07T01:06:00.183Z,946.77
2022-12-07T01:06:10.182Z,946.76
2022-12-07T01:06:20.183Z,946.76
2022-12-07T01:06:30.189Z,946.75
2022-12-07T01:06:40.186Z,946.74
2022-12-07T01:06:50.191Z,946.74
2022-12-07T01:07:00.201Z,946.74
2022-12-07T01:07:10.191Z,946.74
2022-12-07T01:07:20.195Z,946.73
2022-12-07T01:07:30.191Z,946.73
2022-12-07T01:07:40.235Z,946.73
2022-12-07T01:07:50.231Z,946.73
2022-12-07T01:08:00.300Z,946.73
2022-12-07T01:08:10.259Z,946.72
2022-12-07T01:08:20.315Z,946.72
2022-12-07T01:08:30.202Z,946.71
2022-12-07T01:08:40.194Z,946.71
2022-12-07T01:08:50.199Z,946.71
2022-12-07T01:09:00.197Z,946.71
2022-12-07T01:09:10.201Z,946.72
2022-12-07T01:09:20.199Z,946.72
2022-12-07T01:09:30.201Z,946.72
2022-12-07T01:09:40.202Z,946.72
2022-12-07T01:09:50.203Z,946.72
2022-12-07T01:10:00.516Z,946.71
2022-12-07T01:10:10.205Z,946.71
2022-12-07T01:10:20.206Z,946.71
2022-12-07T01:10:30.209Z,946.71
2022-12-07T01:10:40.208Z,946.72
2022-12-07T01:10:50.208Z,946.72
2022-12-07T01:11:00.208Z,946.71
2022-12-07T01:11:10.211Z,946.72
2022-12-07T01:11:20.212Z,946.71
2022-12-07T01:11:30.211Z,946.71
2022-12-07T01:11:40.211Z,946.71
2022-12-07T01:11:50.213Z,946.71
2022-12-07T01:12:00.214Z,946.71
2022-12-07T01:12:10.212Z,946.71
2022-12-07T01:12:20.220Z,946.71
2022-12-07T01:12:30.217Z,946.72
2022-12-07T01:12:40.217Z,946.72
2022-12-07T01:12:50.218Z,946.71
2022-12-07T01:13:00.219Z,946.71
2022-12-07T01:13:10.219Z,946.72
2022-12-07T01:13:20.226Z,946.71
2022-12-07T01:13:30.226Z,946.71
2022-12-07T01:13:40.221Z,946.72
2022-12-07T01:13:50.222Z,946.72
2022-12-07T01:14:00.226Z,946.72
2022-12-07T01:14:10.223Z,946.72
2022-12-07T01:14:20.251Z,946.72
2022-12-07T01:14:30.207Z,946.72
2022-12-07T01:14:40.224Z,946.72
2022-12-07T01:14:50.228Z,946.71
2022-12-07T01:15:00.218Z,946.71
2022-12-07T01:15:10.212Z,946.71
2022-12-07T01:15:20.219Z,946.71
2022-12-07T01:15:30.231Z,946.71
2022-12-07T01:15:40.233Z,946.71
2022-12-07T01:15:50.214Z,946.72
2022-12-07T01:16:00.234Z,946.71
2022-12-07T01:16:10.318Z,946.70
2022-12-07T01:16:20.309Z,946.70
2022-12-07T01:16:30.396Z,946.70
2022-12-07T01:16:40.274Z,946.71
2022-12-07T01:16:50.258Z,946.71
2022-12-07T01:17:00.276Z,946.71
2022-12-07T01:17:10.350Z,946.71
2022-12-07T01:17:20.224Z,946.71
2022-12-07T01:17:30.224Z,946.71
2022-12-07T01:17:40.222Z,946.71
2022-12-07T01:17:50.242Z,946.71
2022-12-07T01:18:00.243Z,946.70
2022-12-07T01:18:10.243Z,946.71
2022-12-07T01:18:20.244Z,946.71
2022-12-07T01:18:30.273Z,946.71
2022-12-07T01:18:40.245Z,946.71
2022-12-07T01:18:50.246Z,946.71
2022-12-07T01:19:00.260Z,946.72
2022-12-07T01:19:10.246Z,946.72
2022-12-07T01:19:20.229Z,946.72
2022-12-07T01:19:30.250Z,946.73
2022-12-07T01:19:40.250Z,946.73
2022-12-07T01:19:50.252Z,946.73
2022-12-07T01:20:00.779Z,946.73
2022-12-07T01:20:10.250Z,946.73
2022-12-07T01:20:20.253Z,946.72
2022-12-07T01:20:30.257Z,946.72
2022-12-07T01:20:40.257Z,946.73
2022-12-07T01:20:50.256Z,946.73
2022-12-07T01:21:00.259Z,946.72
2022-12-07T01:21:10.258Z,946.72
2022-12-07T01:21:20.258Z,946.72
2022-12-07T01:21:30.263Z,946.72
2022-12-07T01:21:40.266Z,946.72
2022-12-07T01:21:50.264Z,946.72
2022-12-07T01:22:00.258Z,946.72
2022-12-07T01:22:10.262Z,946.72
2022-12-07T01:22:20.268Z,946.71
2022-12-07T01:22:30.267Z,946.72
2022-12-07T01:22:40.265Z,946.72
2022-12-07T01:22:50.247Z,946.72
2022-12-07T01:23:00.274Z,946.73
2022-12-07T01:23:10.268Z,946.73
2022-12-07T01:23:20.271Z,946.73
2022-12-07T01:23:30.271Z,946.73
2022-12-07T01:23:40.272Z,946.73
2022-12-07T01:23:50.258Z,946.73
2022-12-07T01:24:00.285Z,946.74
2022-12-07T01:24:10.276Z,946.74
2022-12-07T01:24:20.278Z,946.74
2022-12-07T01:24:30.277Z,946.75
2022-12-07T01:24:40.279Z,946.75
2022-12-07T01:24:50.279Z,946.75
2022-12-07T01:25:00.285Z,946.75
2022-12-07T01:25:10.266Z,946.75
2022-12-07T01:25:20.283Z,946.75
2022-12-07T01:25:30.283Z,946.75
2022-12-07T01:25:40.287Z,946.76
2022-12-07T01:25:50.282Z,946.76
2022-12-07T01:26:00.287Z,946.76
2022-12-07T01:26:10.286Z,946.75
2022-12-07T01:26:20.294Z,946.75
2022-12-07T01:26:30.287Z,946.75
2022-12-07T01:26:40.290Z,946.75
2022-12-07T01:26:50.299Z,946.74
2022-12-07T01:27:00.295Z,946.74
2022-12-07T01:27:10.295Z,946.73
2022-12-07T01:27:20.305Z,946.73
2022-12-07T01:27:30.299Z,946.72
2022-12-07T01:27:40.297Z,946.72
2022-12-07T01:27:50.280Z,946.73
2022-12-07T01:28:00.299Z,946.73
2022-12-07T01:28:10.282Z,946.72
2022-12-07T01:28:20.296Z,946.72
2022-12-07T01:28:30.299Z,946.72
2022-12-07T01:28:40.300Z,946.72
2022-12-07T01:28:50.289Z,946.72
2022-12-07T01:29:00.301Z,946.72
2022-12-07T01:29:10.286Z,946.72
2022-12-07T01:29:20.306Z,946.71
2022-12-07T01:29:30.305Z,946.71
2022-12-07T01:29:40.302Z,946.70
2022-12-07T01:29:50.307Z,946.70
2022-12-07T01:30:00.489Z,946.70
2022-12-07T01:30:10.309Z,946.69
2022-12-07T01:30:20.309Z,946.69
2022-12-07T01:30:30.352Z,946.69
2022-12-07T01:30:40.343Z,946.69
2022-12-07T01:30:50.367Z,946.69
2022-12-07T01:31:00.349Z,946.69
2022-12-07T01:31:10.422Z,946.68
2022-12-07T01:31:20.455Z,946.68
2022-12-07T01:31:30.323Z,946.67
2022-12-07T01:31:40.314Z,946.66
2022-12-07T01:31:50.314Z,946.67
2022-12-07T01:32:00.314Z,946.67
2022-12-07T01:32:10.319Z,946.68
2022-12-07T01:32:20.334Z,946.68
2022-12-07T01:32:30.302Z,946.68
2022-12-07T01:32:40.321Z,946.67
2022-12-07T01:32:50.319Z,946.68
2022-12-07T01:33:00.322Z,946.67
2022-12-07T01:33:10.321Z,946.68
2022-12-07T01:33:20.323Z,946.68
2022-12-07T01:33:31.014Z,946.69
2022-12-07T01:33:40.324Z,946.69
2022-12-07T01:33:50.323Z,946.69
2022-12-07T01:34:00.325Z,946.70
2022-12-07T01:34:10.329Z,946.70
2022-12-07T01:34:20.328Z,946.69
2022-12-07T01:34:30.324Z,946.69
2022-12-07T01:34:40.328Z,946.69
2022-12-07T01:34:50.330Z,946.69
2022-12-07T01:35:00.328Z,946.69
2022-12-07T01:35:10.314Z,946.69
2022-12-07T01:35:20.328Z,946.70
2022-12-07T01:35:30.330Z,946.70
2022-12-07T01:35:40.330Z,946.69
2022-12-07T01:35:50.330Z,946.68
2022-12-07T01:36:00.342Z,946.68
2022-12-07T01:36:10.330Z,946.68
2022-12-07T01:36:20.331Z,946.68
2022-12-07T01:36:30.343Z,946.68
2022-12-07T01:36:40.330Z,946.68
2022-12-07T01:36:50.336Z,946.68
2022-12-07T01:37:00.338Z,946.68
2022-12-07T01:37:10.338Z,946.68
2022-12-07T01:37:20.350Z,946.68
2022-12-07T01:37:30.338Z,946.68
2022-12-07T01:37:40.340Z,946.68
2022-12-07T01:37:50.341Z,946.68
2022-12-07T01:38:00.341Z,946.68
2022-12-07T01:38:10.343Z,946.68
2022-12-07T01:38:20.343Z,946.68
2022-12-07T01:38:30.358Z,946.69
2022-12-07T01:38:40.343Z,946.69
2022-12-07T01:38:50.343Z,946.69
2022-12-07T01:39:00.346Z,946.69
2022-12-07T01:39:10.347Z,946.69
2022-12-07T01:39:20.348Z,946.69
2022-12-07T01:39:30.342Z,946.68
2022-12-07T01:39:40.351Z,946.68
2022-12-07T01:39:50.356Z,946.68
2022-12-07T01:40:00.669Z,946.68
2022-12-07T01:40:10.353Z,946.68
2022-12-07T01:40:20.355Z,946.67
2022-12-07T01:40:30.355Z,946.67
2022-12-07T01:40:40.356Z,946.66
2022-12-07T01:40:50.357Z,946.66
2022-12-07T01:41:00.357Z,946.65
2022-12-07T01:41:10.358Z,946.65
2022-12-07T01:41:20.368Z,946.65
2022-12-07T01:41:30.358Z,946.65
2022-12-07T01:41:40.361Z,946.64
2022-12-07T01:41:50.362Z,946.64
2022-12-07T01:42:00.360Z,946.63
2022-12-07T01:42:10.362Z,946.63
2022-12-07T01:42:20.374Z,946.63
2022-12-07T01:42:30.366Z,946.63
2022-12-07T01:42:40.366Z,946.63
2022-12-07T01:42:50.369Z,946.63
2022-12-07T01:43:00.367Z,946.63
2022-12-07T01:43:10.382Z,946.64
2022-12-07T01:43:20.372Z,946.64
2022-12-07T01:43:30.372Z,946.64
2022-12-07T01:43:40.376Z,946.64
2022-12-07T01:43:50.378Z,946.64
2022-12-07T01:44:00.378Z,946.64
2022-12-07T01:44:10.373Z,946.64
2022-12-07T01:44:20.378Z,946.63
2022-12-07T01:44:30.378Z,946.63
2022-12-07T01:44:40.380Z,946.63
2022-12-07T01:44:50.377Z,946.63
2022-12-07T01:45:00.361Z,946.63
2022-12-07T01:45:10.382Z,946.63
2022-12-07T01:45:20.386Z,946.63
2022-12-07T01:45:30.366Z,946.63
2022-12-07T01:45:40.383Z,946.63
2022-12-07T01:45:50.432Z,946.63
2022-12-07T01:46:00.440Z,946.63
2022-12-07T01:46:10.443Z,946.62
2022-12-07T01:46:20.446Z,946.62
2022-12-07T01:46:30.482Z,946.61
2022-12-07T01:46:40.423Z,946.62
2022-12-07T01:46:50.392Z,946.62
2022-12-07T01:47:00.403Z,946.62
2022-12-07T01:47:10.395Z,946.62
2022-12-07T01:47:20.405Z,946.62
2022-12-07T01:47:30.404Z,946.63
2022-12-07T01:47:40.392Z,946.63
2022-12-07T01:47:50.395Z,946.63
2022-12-07T01:48:00.396Z,946.63
2022-12-07T01:48:10.382Z,946.63
2022-12-07T01:48:20.377Z,946.63
2022-12-07T01:48:30.394Z,946.62
2022-12-07T01:48:40.394Z,946.63
2022-12-07T01:48:50.403Z,946.63
2022-12-07T01:49:00.403Z,946.63
2022-12-07T01:49:10.402Z,946.62
2022-12-07T01:49:20.399Z,946.62
2022-12-07T01:49:30.400Z,946.62
2022-12-07T01:49:40.406Z,946.62
2022-12-07T01:49:50.393Z,946.62
2022-12-07T01:50:00.865Z,946.62
2022-12-07T01:50:10.410Z,946.62
2022-12-07T01:50:20.408Z,946.61
2022-12-07T01:50:30.408Z,946.61
2022-12-07T01:50:40.408Z,946.61
2022-12-07T01:50:50.411Z,946.60
2022-12-07T01:51:00.410Z,946.60
2022-12-07T01:51:10.413Z,946.59
2022-12-07T01:51:20.421Z,946.58
2022-12-07T01:51:30.414Z,946.57
2022-12-07T01:51:40.418Z,946.57
2022-12-07T01:51:50.415Z,946.56
2022-12-07T01:52:00.413Z,946.56
2022-12-07T01:52:10.419Z,946.55
2022-12-07T01:52:20.430Z,946.55
2022-12-07T01:52:30.417Z,946.55
2022-12-07T01:52:40.420Z,946.55
2022-12-07T01:52:50.429Z,946.55
2022-12-07T01:53:00.422Z,946.55
2022-12-07T01:53:10.422Z,946.55
2022-12-07T01:53:20.423Z,946.55
2022-12-07T01:53:30.422Z,946.55
2022-12-07T01:53:40.424Z,946.55
2022-12-07T01:53:50.424Z,946.54
2022-12-07T01:54:00.405Z,946.55
2022-12-07T01:54:10.423Z,946.55
2022-12-07T01:54:20.424Z,946.56
2022-12-07T01:54:31.022Z,946.56
2022-12-07T01:54:40.429Z,946.56
2022-12-07T01:54:50.429Z,946.56
2022-12-07T01:55:00.433Z,946.56
2022-12-07T01:55:10.429Z,946.57
2022-12-07T01:55:20.429Z,946.57
2022-12-07T01:55:30.431Z,946.57
2022-12-07T01:55:40.428Z,946.58
2022-12-07T01:55:50.430Z,946.59
2022-12-07T01:56:00.431Z,946.59
2022-12-07T01:56:10.440Z,946.59
2022-12-07T01:56:20.435Z,946.60
2022-12-07T01:56:30.437Z,946.60
2022-12-07T01:56:40.439Z,946.61
2022-12-07T01:56:50.441Z,946.61
2022-12-07T01:57:00.444Z,946.61
2022-12-07T01:57:10.442Z,946.61
2022-12-07T01:57:20.889Z,946.62
2022-12-07T01:57:30.445Z,946.62
2022-12-07T01:57:40.448Z,946.62
2022-12-07T01:57:50.448Z,946.62
2022-12-07T01:58:00.451Z,946.61
2022-12-07T01:58:10.440Z,946.61
2022-12-07T01:58:20.443Z,946.61
2022-12-07T01:58:30.451Z,946.62
2022-12-07T01:58:40.447Z,946.61
2022-12-07T01:58:50.451Z,946.61
2022-12-07T01:59:00.448Z,946.61
2022-12-07T01:59:10.446Z,946.61
2022-12-07T01:59:20.449Z,946.61
2022-12-07T01:59:30.433Z,946.60
2022-12-07T01:59:40.458Z,946.60
2022-12-07T01:59:50.453Z,946.60
2022-12-07T02:00:00.975Z,946.60
2022-12-07T02:00:10.455Z,946.60
2022-12-07T02:00:20.453Z,946.59
2022-12-07T02:00:30.452Z,946.59
2022-12-07T02:00:40.457Z,946.59
2022-12-07T02:00:50.466Z,946.59
2022-12-07T02:01:00.508Z,946.60
2022-12-07T02:01:10.467Z,946.61
2022-12-07T02:01:20.507Z,946.61
2022-12-07T02:01:30.545Z,946.60
2022-12-07T02:01:40.514Z,946.59
2022-12-07T02:01:50.514Z,946.59
2022-12-07T02:02:00.534Z,946.59
2022-12-07T02:02:10.511Z,946.59
2022-12-07T02:02:20.511Z,946.59
2022-12-07T02:02:30.530Z,946.59
2022-12-07T02:02:40.489Z,946.59
2022-12-07T02:02:50.523Z,946.59
2022-12-07T02:03:00.482Z,946.59
2022-12-07T02:03:10.475Z,946.59
2022-12-07T02:03:20.484Z,946.59
2022-12-07T02:03:30.467Z,946.59
2022-12-07T02:03:40.471Z,946.58
2022-12-07T02:03:50.473Z,946.58
2022-12-07T02:04:00.472Z,946.58
2022-12-07T02:04:10.473Z,946.57
2022-12-07T02:04:20.478Z,946.56
2022-12-07T02:04:30.475Z,946.56
2022-12-07T02:04:40.476Z,946.55